Time,TemperatureF,DewpointF,PressureIn,WindDirection,WindDirectionDegrees,WindSpeedMPH,WindSpeedGustMPH,Humidity,HourlyPrecipIn,Conditions,Clouds,dailyrainin,SolarRadiationWatts/m^2,SoftwareType,DateUTC
2013-06-19 00:01:00,84.0,59.0,29.96,SSE,166,9.0,16.0,43,-99.99,,,-99.99,0.000000,,2013-06-19 06:01:00,
2013-06-19 00:11:00,83.0,60.0,29.96,South,171,5.0,10.0,44,-99.99,,,-99.99,0.000000,,2013-06-19 06:11:00,
2013-06-19 00:22:00,82.0,60.0,29.96,South,169,4.0,6.0,46,-99.99,,,-99.99,0.000000,,2013-06-19 06:22:00,
2013-06-19 00:33:00,82.0,60.0,29.96,South,169,4.0,6.0,46,-99.99,,,-99.99,0.000000,,2013-06-19 06:33:00,
2013-06-19 00:42:00,82.0,60.0,29.96,SSW,197,5.0,9.0,48,-99.99,,,-99.99,0.000000,,2013-06-19 06:42:00,
2013-06-19 00:52:00,82.0,60.0,29.95,South,183,6.0,9.0,48,-99.99,,,-99.99,0.000000,,2013-06-19 06:52:00,
2013-06-19 01:01:00,82.0,60.0,29.95,South,183,6.0,9.0,48,-99.99,,,-99.99,0.000000,,2013-06-19 07:01:00,
2013-06-19 01:11:00,81.0,61.0,29.95,South,190,7.0,15.0,50,-99.99,,,-99.99,0.000000,,2013-06-19 07:11:00,
2013-06-19 01:22:00,82.0,60.0,29.94,SSW,193,10.0,20.0,47,-99.99,,,-99.99,0.000000,,2013-06-19 07:22:00,
2013-06-19 01:33:00,82.0,60.0,29.94,SSW,193,10.0,20.0,47,-99.99,,,-99.99,0.000000,,2013-06-19 07:33:00,
2013-06-19 01:43:00,81.0,61.0,29.94,South,190,10.0,16.0,50,-99.99,,,-99.99,0.000000,,2013-06-19 07:43:00,
2013-06-19 01:53:00,81.0,60.0,29.94,South,180,10.0,17.0,49,-99.99,,,-99.99,0.000000,,2013-06-19 07:53:00,
2013-06-19 02:02:00,81.0,60.0,29.94,South,180,10.0,17.0,49,-99.99,,,-99.99,0.000000,,2013-06-19 08:02:00,
2013-06-19 02:11:00,81.0,61.0,29.94,South,182,9.0,14.0,50,-99.99,,,-99.99,0.000000,,2013-06-19 08:11:00,
2013-06-19 02:22:00,80.0,61.0,29.94,South,177,8.0,11.0,52,-99.99,,,-99.99,0.000000,,2013-06-19 08:22:00,
2013-06-19 02:33:00,80.0,61.0,29.94,South,177,8.0,11.0,52,-99.99,,,-99.99,0.000000,,2013-06-19 08:33:00,
2013-06-19 02:43:00,79.0,61.0,29.94,South,177,7.0,10.0,55,-99.99,,,-99.99,0.000000,,2013-06-19 08:43:00,
2013-06-19 02:54:00,78.0,61.0,29.94,South,180,6.0,8.0,57,-99.99,,,-99.99,0.000000,,2013-06-19 08:54:00,
2013-06-19 03:02:00,78.0,61.0,29.94,South,180,6.0,8.0,57,-99.99,,,-99.99,0.000000,,2013-06-19 09:02:00,
2013-06-19 03:11:00,77.0,61.0,29.94,SSW,192,7.0,9.0,57,-99.99,,,-99.99,0.000000,,2013-06-19 09:11:00,
2013-06-19 03:22:00,77.0,61.0,29.94,South,180,7.0,10.0,57,-99.99,,,-99.99,0.000000,,2013-06-19 09:22:00,
2013-06-19 03:34:00,77.0,61.0,29.94,South,180,7.0,10.0,57,-99.99,,,-99.99,0.000000,,2013-06-19 09:34:00,
2013-06-19 03:43:00,77.0,61.0,29.94,South,169,7.0,10.0,58,-99.99,,,-99.99,0.000000,,2013-06-19 09:43:00,
2013-06-19 03:53:00,76.0,62.0,29.94,SE,142,6.0,8.0,61,-99.99,,,-99.99,0.000000,,2013-06-19 09:53:00,
2013-06-19 04:01:00,76.0,62.0,29.94,SE,142,6.0,8.0,61,-99.99,,,-99.99,0.000000,,2013-06-19 10:01:00,
2013-06-19 04:11:00,75.0,62.0,29.94,SE,136,6.0,8.0,64,-99.99,,,-99.99,0.000000,,2013-06-19 10:11:00,
2013-06-19 04:22:00,75.0,62.0,29.94,South,170,7.0,11.0,62,-99.99,,,-99.99,0.000000,,2013-06-19 10:22:00,
2013-06-19 04:33:00,75.0,62.0,29.94,South,170,7.0,11.0,62,-99.99,,,-99.99,0.000000,,2013-06-19 10:33:00,
2013-06-19 04:42:00,75.0,61.0,29.94,SSE,167,9.0,12.0,60,-99.99,,,-99.99,0.000000,,2013-06-19 10:42:00,
2013-06-19 04:53:00,75.0,60.0,29.94,SSE,161,7.0,10.0,59,-99.99,,,-99.99,0.000000,,2013-06-19 10:53:00,
2013-06-19 05:02:00,75.0,60.0,29.94,SSE,161,7.0,10.0,59,-99.99,,,-99.99,0.000000,,2013-06-19 11:02:00,
2013-06-19 05:11:00,74.0,61.0,29.95,ESE,112,4.0,7.0,62,-99.99,,,-99.99,0.000000,,2013-06-19 11:11:00,
2013-06-19 05:22:00,73.0,61.0,29.95,ENE,64,6.0,10.0,67,-99.99,,,-99.99,0.000000,,2013-06-19 11:22:00,
2013-06-19 05:33:00,73.0,61.0,29.95,ENE,64,6.0,10.0,67,-99.99,,,-99.99,0.000000,,2013-06-19 11:33:00,
2013-06-19 05:42:00,74.0,60.0,29.96,ESE,111,3.0,7.0,62,-99.99,,,-99.99,0.000000,,2013-06-19 11:42:00,
2013-06-19 05:54:00,76.0,59.0,29.96,South,173,7.0,11.0,56,-99.99,,,-99.99,0.000000,,2013-06-19 11:54:00,
2013-06-19 06:01:00,76.0,59.0,29.96,South,173,7.0,11.0,56,-99.99,,,-99.99,0.000000,,2013-06-19 12:01:00,
2013-06-19 06:12:00,75.0,60.0,29.96,South,174,9.0,12.0,58,-99.99,,,-99.99,0.000000,,2013-06-19 12:12:00,
2013-06-19 06:22:00,75.0,60.0,29.96,South,177,7.0,12.0,59,-99.99,,,-99.99,1.390000,,2013-06-19 12:22:00,
2013-06-19 06:34:00,75.0,60.0,29.96,South,177,7.0,12.0,59,-99.99,,,-99.99,1.390000,,2013-06-19 12:34:00,
2013-06-19 06:44:00,74.0,60.0,29.97,South,176,6.0,8.0,61,-99.99,,,-99.99,8.370000,,2013-06-19 12:44:00,
2013-06-19 06:53:00,73.0,60.0,29.97,SSE,158,6.0,8.0,63,-99.99,,,-99.99,29.990000,,2013-06-19 12:53:00,
2013-06-19 07:02:00,73.0,60.0,29.97,SSE,158,6.0,8.0,63,-99.99,,,-99.99,29.990000,,2013-06-19 13:02:00,
2013-06-19 07:12:00,72.0,60.0,29.97,SE,130,6.0,8.0,66,-99.99,,,-99.99,69.040001,,2013-06-19 13:12:00,
2013-06-19 07:22:00,74.0,60.0,29.98,SSE,155,8.0,10.0,60,-99.99,,,-99.99,115.059998,,2013-06-19 13:22:00,
2013-06-19 07:33:00,74.0,60.0,29.98,SSE,155,8.0,10.0,60,-99.99,,,-99.99,115.059998,,2013-06-19 13:33:00,
2013-06-19 07:42:00,76.0,59.0,29.98,SSE,161,7.0,9.0,56,-99.99,,,-99.99,158.990005,,2013-06-19 13:42:00,
2013-06-19 07:54:00,76.0,60.0,29.99,SE,143,6.0,9.0,57,-99.99,,,-99.99,185.490005,,2013-06-19 13:54:00,
2013-06-19 08:02:00,76.0,60.0,29.99,SE,143,6.0,9.0,57,-99.99,,,-99.99,185.490005,,2013-06-19 14:02:00,
2013-06-19 08:11:00,77.0,60.0,29.99,SSE,159,7.0,10.0,54,-99.99,,,-99.99,238.490005,,2013-06-19 14:11:00,
2013-06-19 08:22:00,79.0,59.0,29.99,South,169,7.0,11.0,51,-99.99,,,-99.99,292.179993,,2013-06-19 14:22:00,
2013-06-19 08:33:00,79.0,59.0,29.99,South,169,7.0,11.0,51,-99.99,,,-99.99,292.179993,,2013-06-19 14:33:00,
2013-06-19 08:43:00,80.0,59.0,29.99,South,178,9.0,14.0,48,-99.99,,,-99.99,337.510010,,2013-06-19 14:43:00,
2013-06-19 08:53:00,80.0,59.0,29.99,South,177,10.0,17.0,47,-99.99,,,-99.99,372.380005,,2013-06-19 14:53:00,
2013-06-19 09:01:00,80.0,59.0,29.99,South,177,10.0,17.0,47,-99.99,,,-99.99,372.380005,,2013-06-19 15:01:00,
2013-06-19 09:11:00,81.0,59.0,30.00,South,172,11.0,16.0,46,-99.99,,,-99.99,422.579987,,2013-06-19 15:11:00,
2013-06-19 09:22:00,83.0,59.0,30.00,South,173,12.0,19.0,43,-99.99,,,-99.99,466.519989,,2013-06-19 15:22:00,
2013-06-19 09:33:00,83.0,59.0,30.00,South,173,12.0,19.0,43,-99.99,,,-99.99,466.519989,,2013-06-19 15:33:00,
2013-06-19 09:42:00,84.0,58.0,30.00,South,172,13.0,19.0,41,-99.99,,,-99.99,510.450012,,2013-06-19 15:42:00,
2013-06-19 09:53:00,85.0,57.0,30.00,South,173,13.0,20.0,39,-99.99,,,-99.99,551.590027,,2013-06-19 15:53:00,
2013-06-19 10:01:00,85.0,57.0,30.00,South,173,13.0,20.0,39,-99.99,,,-99.99,551.590027,,2013-06-19 16:01:00,
2013-06-19 10:11:00,86.0,57.0,29.99,South,174,12.0,20.0,36,-99.99,,,-99.99,594.830017,,2013-06-19 16:11:00,
2013-06-19 10:22:00,88.0,56.0,29.99,South,187,11.0,19.0,34,-99.99,,,-99.99,635.270020,,2013-06-19 16:22:00,
2013-06-19 10:34:00,88.0,56.0,29.99,South,187,11.0,19.0,34,-99.99,,,-99.99,635.270020,,2013-06-19 16:34:00,
2013-06-19 10:43:00,89.0,55.0,29.99,South,182,12.0,19.0,31,-99.99,,,-99.99,670.830017,,2013-06-19 16:43:00,
2013-06-19 10:53:00,90.0,53.0,29.98,South,176,12.0,19.0,28,-99.99,,,-99.99,701.520020,,2013-06-19 16:53:00,
2013-06-19 11:02:00,90.0,53.0,29.98,South,176,12.0,19.0,28,-99.99,,,-99.99,701.520020,,2013-06-19 17:02:00,
2013-06-19 11:12:00,91.0,52.0,29.98,South,185,12.0,22.0,26,-99.99,,,-99.99,727.320007,,2013-06-19 17:12:00,
2013-06-19 11:22:00,92.0,52.0,29.98,South,176,13.0,20.0,26,-99.99,,,-99.99,746.150024,,2013-06-19 17:22:00,
2013-06-19 11:34:00,92.0,52.0,29.98,South,176,13.0,20.0,26,-99.99,,,-99.99,746.150024,,2013-06-19 17:34:00,
2013-06-19 11:43:00,93.0,45.0,29.97,SSW,196,14.0,24.0,19,-99.99,,,-99.99,785.890015,,2013-06-19 17:43:00,
2013-06-19 11:53:00,94.0,41.0,29.97,SSW,194,14.0,23.0,16,-99.99,,,-99.99,742.659973,,2013-06-19 17:53:00,
2013-06-19 12:01:00,94.0,41.0,29.97,SSW,194,14.0,23.0,16,-99.99,,,-99.99,742.659973,,2013-06-19 18:01:00,
2013-06-19 12:11:00,95.0,39.0,29.96,South,191,16.0,29.0,14,-99.99,,,-99.99,742.659973,,2013-06-19 18:11:00,
2013-06-19 12:24:00,95.0,38.0,29.96,SSW,197,16.0,25.0,13,-99.99,,,-99.99,842.380005,,2013-06-19 18:24:00,
2013-06-19 12:33:00,95.0,38.0,29.96,SSW,197,16.0,25.0,13,-99.99,,,-99.99,842.380005,,2013-06-19 18:33:00,
2013-06-19 12:44:00,96.0,39.0,29.96,SSW,207,14.0,25.0,14,-99.99,,,-99.99,856.330017,,2013-06-19 18:44:00,
2013-06-19 12:53:00,96.0,37.0,29.95,SSW,198,14.0,23.0,13,-99.99,,,-99.99,849.349976,,2013-06-19 18:53:00,
2013-06-19 13:01:00,96.0,37.0,29.95,SSW,198,14.0,23.0,13,-99.99,,,-99.99,849.349976,,2013-06-19 19:01:00,
2013-06-19 13:11:00,96.0,36.0,29.95,SSW,206,15.0,27.0,12,-99.99,,,-99.99,814.489990,,2013-06-19 19:11:00,
2013-06-19 13:22:00,97.0,36.0,29.94,SSW,203,14.0,24.0,11,-99.99,,,-99.99,335.420013,,2013-06-19 19:22:00,
2013-06-19 13:32:00,97.0,36.0,29.94,SSW,203,14.0,24.0,11,-99.99,,,-99.99,335.420013,,2013-06-19 19:32:00,
2013-06-19 13:43:00,97.0,34.0,29.94,SW,226,11.0,22.0,11,-99.99,,,-99.99,417.010010,,2013-06-19 19:43:00,
2013-06-19 13:53:00,98.0,33.0,29.93,WSW,241,9.0,18.0,10,-99.99,,,-99.99,789.380005,,2013-06-19 19:53:00,
2013-06-19 14:02:00,98.0,33.0,29.93,WSW,241,9.0,18.0,10,-99.99,,,-99.99,789.380005,,2013-06-19 20:02:00,
2013-06-19 14:11:00,98.0,32.0,29.92,SW,234,9.0,17.0,9,-99.99,,,-99.99,875.849976,,2013-06-19 20:11:00,
2013-06-19 14:22:00,98.0,32.0,29.91,SW,231,10.0,19.0,9,-99.99,,,-99.99,854.929993,,2013-06-19 20:22:00,
2013-06-19 14:33:00,98.0,32.0,29.91,SW,231,10.0,19.0,9,-99.99,,,-99.99,854.929993,,2013-06-19 20:33:00,
2013-06-19 14:42:00,99.0,32.0,29.90,SW,232,12.0,22.0,9,-99.99,,,-99.99,847.260010,,2013-06-19 20:42:00,
2013-06-19 14:52:00,99.0,32.0,29.90,SSW,213,11.0,24.0,9,-99.99,,,-99.99,832.619995,,2013-06-19 20:52:00,
2013-06-19 15:02:00,99.0,32.0,29.90,SSW,213,11.0,24.0,9,-99.99,,,-99.99,832.619995,,2013-06-19 21:02:00,
2013-06-19 15:11:00,99.0,32.0,29.89,SW,220,15.0,31.0,9,-99.99,,,-99.99,807.510010,,2013-06-19 21:11:00,
2013-06-19 15:22:00,100.0,33.0,29.88,SSW,208,17.0,33.0,9,-99.99,,,-99.99,783.109985,,2013-06-19 21:22:00,
2013-06-19 15:33:00,100.0,33.0,29.88,SSW,208,17.0,33.0,9,-99.99,,,-99.99,783.109985,,2013-06-19 21:33:00,
2013-06-19 15:44:00,100.0,33.0,29.88,SSW,202,13.0,25.0,9,-99.99,,,-99.99,772.650024,,2013-06-19 21:44:00,
2013-06-19 15:52:00,100.0,34.0,29.87,SW,223,14.0,28.0,10,-99.99,,,-99.99,741.960022,,2013-06-19 21:52:00,
2013-06-19 16:01:00,100.0,34.0,29.87,SW,223,14.0,28.0,10,-99.99,,,-99.99,741.960022,,2013-06-19 22:01:00,
2013-06-19 16:11:00,100.0,34.0,29.86,SW,216,14.0,28.0,10,-99.99,,,-99.99,663.859985,,2013-06-19 22:11:00,
2013-06-19 16:22:00,100.0,34.0,29.85,WSW,257,21.0,34.0,10,-99.99,,,-99.99,667.349976,,2013-06-19 22:22:00,
2013-06-19 16:34:00,100.0,34.0,29.85,WSW,257,21.0,34.0,10,-99.99,,,-99.99,667.349976,,2013-06-19 22:34:00,
2013-06-19 16:43:00,100.0,34.0,29.85,SW,223,14.0,25.0,10,-99.99,,,-99.99,617.840027,,2013-06-19 22:43:00,
2013-06-19 16:53:00,100.0,35.0,29.84,SW,231,16.0,28.0,10,-99.99,,,-99.99,523.000000,,2013-06-19 22:53:00,
2013-06-19 17:02:00,100.0,35.0,29.84,SW,231,16.0,28.0,10,-99.99,,,-99.99,523.000000,,2013-06-19 23:02:00,
2013-06-19 17:12:00,100.0,35.0,29.84,SW,221,18.0,30.0,10,-99.99,,,-99.99,541.130005,,2013-06-19 23:12:00,
2013-06-19 17:23:00,100.0,36.0,29.83,WSW,239,19.0,33.0,10,-99.99,,,-99.99,499.290009,,2013-06-19 23:23:00,
2013-06-19 17:33:00,100.0,36.0,29.83,WSW,239,19.0,33.0,10,-99.99,,,-99.99,499.290009,,2013-06-19 23:33:00,
2013-06-19 17:43:00,100.0,36.0,29.83,WSW,242,17.0,30.0,10,-99.99,,,-99.99,432.350006,,2013-06-19 23:43:00,
2013-06-19 17:52:00,101.0,36.0,29.82,WSW,257,16.0,31.0,10,-99.99,,,-99.99,71.129997,,2013-06-19 23:52:00,
2013-06-19 18:01:00,101.0,36.0,29.82,WSW,257,16.0,31.0,10,-99.99,,,-99.99,71.129997,,2013-06-20 00:01:00,
2013-06-19 18:12:00,100.0,36.0,29.82,West,270,17.0,31.0,10,-99.99,,,-99.99,55.090000,,2013-06-20 00:12:00,
2013-06-19 18:22:00,100.0,36.0,29.81,West,264,14.0,24.0,11,-99.99,,,-99.99,251.039993,,2013-06-20 00:22:00,
2013-06-19 18:33:00,100.0,36.0,29.81,West,264,14.0,24.0,11,-99.99,,,-99.99,251.039993,,2013-06-20 00:33:00,
2013-06-19 18:44:00,100.0,36.0,29.81,West,264,14.0,24.0,11,-99.99,,,-99.99,251.039993,,2013-06-20 00:44:00,
2013-06-19 18:52:00,100.0,36.0,29.81,WSW,255,14.0,30.0,11,-99.99,,,-99.99,142.949997,,2013-06-20 00:52:00,
2013-06-19 19:02:00,100.0,36.0,29.81,WSW,255,14.0,30.0,11,-99.99,,,-99.99,142.949997,,2013-06-20 01:02:00,
2013-06-19 19:11:00,100.0,36.0,29.81,SW,229,13.0,24.0,11,-99.99,,,-99.99,85.769997,,2013-06-20 01:11:00,
2013-06-19 19:22:00,99.0,36.0,29.81,SW,229,10.0,17.0,11,-99.99,,,-99.99,126.910004,,2013-06-20 01:22:00,
2013-06-19 19:33:00,99.0,36.0,29.81,SW,229,10.0,17.0,11,-99.99,,,-99.99,126.910004,,2013-06-20 01:33:00,
2013-06-19 19:44:00,99.0,36.0,29.82,WSW,246,11.0,19.0,11,-99.99,,,-99.99,108.089996,,2013-06-20 01:44:00,
2013-06-19 19:52:00,99.0,36.0,29.82,WSW,253,15.0,26.0,11,-99.99,,,-99.99,76.709999,,2013-06-20 01:52:00,
2013-06-19 20:02:00,99.0,36.0,29.82,WSW,253,15.0,26.0,11,-99.99,,,-99.99,76.709999,,2013-06-20 02:02:00,
2013-06-19 20:11:00,98.0,36.0,29.82,SW,227,14.0,22.0,11,-99.99,,,-99.99,36.259998,,2013-06-20 02:11:00,
2013-06-19 20:24:00,97.0,36.0,29.82,SW,228,8.0,12.0,12,-99.99,,,-99.99,22.309999,,2013-06-20 02:24:00,
2013-06-19 20:33:00,97.0,36.0,29.82,SW,228,8.0,12.0,12,-99.99,,,-99.99,22.309999,,2013-06-20 02:33:00,
2013-06-19 20:43:00,96.0,37.0,29.82,SW,220,7.0,10.0,12,-99.99,,,-99.99,8.370000,,2013-06-20 02:43:00,
2013-06-19 20:52:00,95.0,37.0,29.83,SW,222,5.0,8.0,13,-99.99,,,-99.99,1.390000,,2013-06-20 02:52:00,
2013-06-19 21:02:00,95.0,37.0,29.83,SW,222,5.0,8.0,13,-99.99,,,-99.99,1.390000,,2013-06-20 03:02:00,
2013-06-19 21:11:00,93.0,37.0,29.83,WSW,243,8.0,15.0,14,-99.99,,,-99.99,0.000000,,2013-06-20 03:11:00,
2013-06-19 21:22:00,94.0,36.0,29.83,WSW,245,10.0,17.0,13,-99.99,,,-99.99,0.000000,,2013-06-20 03:22:00,
2013-06-19 21:33:00,94.0,36.0,29.83,WSW,245,10.0,17.0,13,-99.99,,,-99.99,0.000000,,2013-06-20 03:33:00,
2013-06-19 21:43:00,95.0,35.0,29.84,WSW,257,10.0,18.0,12,-99.99,,,-99.99,0.000000,,2013-06-20 03:43:00,
2013-06-19 21:54:00,93.0,36.0,29.84,WSW,247,7.0,13.0,13,-99.99,,,-99.99,0.000000,,2013-06-20 03:54:00,
2013-06-19 22:01:00,93.0,36.0,29.84,WSW,247,7.0,13.0,13,-99.99,,,-99.99,0.000000,,2013-06-20 04:01:00,
2013-06-19 22:11:00,93.0,35.0,29.85,West,260,9.0,16.0,13,-99.99,,,-99.99,0.000000,,2013-06-20 04:11:00,
2013-06-19 22:22:00,94.0,34.0,29.86,West,261,12.0,19.0,12,-99.99,,,-99.99,0.000000,,2013-06-20 04:22:00,
2013-06-19 22:33:00,94.0,34.0,29.86,West,261,12.0,19.0,12,-99.99,,,-99.99,0.000000,,2013-06-20 04:33:00,
2013-06-19 22:43:00,94.0,34.0,29.86,WSW,258,11.0,18.0,12,-99.99,,,-99.99,0.000000,,2013-06-20 04:43:00,
2013-06-19 22:54:00,92.0,35.0,29.87,WSW,249,7.0,11.0,13,-99.99,,,-99.99,0.000000,,2013-06-20 04:54:00,
2013-06-19 23:02:00,92.0,35.0,29.87,WSW,249,7.0,11.0,13,-99.99,,,-99.99,0.000000,,2013-06-20 05:02:00,
2013-06-19 23:12:00,89.0,38.0,29.88,SSE,152,10.0,17.0,16,-99.99,,,-99.99,0.000000,,2013-06-20 05:12:00,
2013-06-19 23:33:00,90.0,44.0,29.89,South,170,13.0,21.0,20,-99.99,,,-99.99,0.000000,,2013-06-20 05:33:00,